Time;durP1;ratioP1;P1;durP2;ratioP2;P2;SDS_P1;SDS_P2;PMS_P1;PMS_P2;Temp;Humidity;BMP_temperature;BMP_pressure;BME280_temperature;BME280_humidity;BME280_pressure;Samples;Min_cycle;Max_cycle;Signal;HPM_P1;HPM_P2
2021/05/28 00:02:00;;;;;;;12.57;4.43;;;11.70;99.90;;;;;;5094000;28;20165;-78
2021/05/28 00:04:26;;;;;;;9.60;6.00;;;11.70;99.90;;;;;;5075967;28;20174;-78
2021/05/28 00:06:52;;;;;;;8.07;4.35;;;11.70;99.90;;;;;;5093564;28;20653;-77
2021/05/28 00:09:17;;;;;;;7.47;4.30;;;11.70;99.90;;;;;;5093019;28;20205;-78
2021/05/28 00:11:43;;;;;;;9.25;5.38;;;11.70;99.90;;;;;;5093969;28;20622;-78
2021/05/28 00:14:09;;;;;;;4.50;4.10;;;11.70;99.90;;;;;;5093626;28;20618;-78
2021/05/28 00:16:36;;;;;;;6.35;4.57;;;11.50;99.90;;;;;;5095046;28;20169;-78
2021/05/28 00:19:02;;;;;;;6.82;5.32;;;11.60;99.90;;;;;;5093828;28;21028;-78
2021/05/28 00:21:27;;;;;;;15.90;5.75;;;11.70;99.90;;;;;;5098373;28;20593;-80
2021/05/28 00:23:53;;;;;;;7.70;4.85;;;11.60;99.90;;;;;;5098368;28;20158;-79
2021/05/28 00:26:19;;;;;;;11.68;5.07;;;11.70;99.90;;;;;;5102356;28;20575;-77
2021/05/28 00:28:49;;;;;;;6.55;5.80;;;11.60;99.90;;;;;;5081310;28;20280;-78
2021/05/28 00:31:16;;;;;;;8.57;5.43;;;11.50;99.90;;;;;;5114121;28;20162;-77
2021/05/28 00:33:42;;;;;;;7.03;5.55;;;11.40;99.90;;;;;;5113113;28;20215;-80
2021/05/28 00:36:08;;;;;;;8.60;5.45;;;11.50;99.90;;;;;;5101484;28;20162;-80
2021/05/28 00:38:33;;;;;;;16.08;5.43;;;11.50;99.90;;;;;;5094928;28;20218;-78
2021/05/28 00:40:59;;;;;;;7.55;5.05;;;11.40;99.90;;;;;;5100003;28;20180;-79
2021/05/28 00:43:25;;;;;;;10.02;5.43;;;11.30;99.90;;;;;;5097277;28;20249;-78
2021/05/28 00:45:50;;;;;;;11.25;4.78;;;11.20;99.90;;;;;;5097805;28;20208;-79
2021/05/28 00:48:16;;;;;;;9.25;5.57;;;11.10;99.90;;;;;;5098620;28;20209;-78
2021/05/28 00:50:41;;;;;;;10.18;4.97;;;11.00;99.90;;;;;;5098782;28;20170;-78
2021/05/28 00:53:07;;;;;;;6.43;4.47;;;11.00;99.90;;;;;;5097714;28;20205;-79
2021/05/28 00:55:33;;;;;;;8.52;5.07;;;11.10;99.90;;;;;;5097096;28;20166;-77
2021/05/28 00:57:59;;;;;;;8.63;5.10;;;11.00;99.90;;;;;;5081407;28;20174;-79
2021/05/28 01:00:27;;;;;;;9.82;5.15;;;11.10;99.90;;;;;;5095134;28;20201;-80
2021/05/28 01:02:54;;;;;;;9.13;6.18;;;11.10;99.90;;;;;;5096558;28;20657;-79
2021/05/28 01:05:20;;;;;;;9.18;6.05;;;11.10;99.90;;;;;;5095506;28;20158;-79
2021/05/28 01:07:46;;;;;;;10.80;5.55;;;11.30;99.90;;;;;;5093430;28;20258;-77
2021/05/28 01:10:12;;;;;;;6.50;5.47;;;11.10;99.90;;;;;;5093851;28;20747;-78
2021/05/28 01:12:38;;;;;;;9.05;6.35;;;11.00;99.90;;;;;;5077234;28;20185;-76
2021/05/28 01:15:06;;;;;;;7.65;5.65;;;10.90;99.90;;;;;;5095131;28;20161;-77
2021/05/28 01:17:32;;;;;;;13.27;6.65;;;10.90;99.90;;;;;;5094185;28;20176;-78
2021/05/28 01:19:58;;;;;;;8.25;5.53;;;11.00;99.90;;;;;;5093336;28;20197;-77
2021/05/28 01:22:24;;;;;;;14.45;7.05;;;11.00;99.90;;;;;;5094635;28;20954;-78
2021/05/28 01:24:49;;;;;;;21.83;7.78;;;10.80;99.90;;;;;;5093179;28;20184;-78
2021/05/28 01:27:17;;;;;;;20.13;8.80;;;10.70;99.90;;;;;;5074036;28;20201;-79
2021/05/28 01:29:45;;;;;;;10.60;7.35;;;10.60;99.90;;;;;;5074315;28;20190;-79
2021/05/28 01:32:11;;;;;;;11.23;6.82;;;10.40;99.90;;;;;;5092708;28;20537;-78
2021/05/28 01:34:36;;;;;;;11.10;7.47;;;10.50;99.90;;;;;;5094828;28;20162;-79
2021/05/28 01:37:02;;;;;;;14.45;6.95;;;10.40;99.90;;;;;;5099464;28;20673;-78
2021/05/28 01:39:28;;;;;;;11.73;7.05;;;10.50;99.90;;;;;;5100202;28;20185;-77
2021/05/28 01:41:54;;;;;;;21.45;6.63;;;10.50;99.90;;;;;;5101784;28;20233;-79
2021/05/28 01:44:19;;;;;;;10.32;6.43;;;10.50;99.90;;;;;;5082465;28;20214;-78
2021/05/28 01:46:48;;;;;;;13.52;6.20;;;10.40;99.90;;;;;;5098888;28;20260;-78
2021/05/28 01:49:13;;;;;;;12.88;5.97;;;10.40;99.90;;;;;;5097260;28;20422;-78
2021/05/28 01:51:51;;;;;;;11.75;6.97;;;10.30;99.90;;;;;;5098984;28;20189;-78
2021/05/28 01:54:18;;;;;;;12.00;6.32;;;10.40;99.90;;;;;;5099943;28;20258;-77
2021/05/28 01:56:47;;;;;;;8.23;6.88;;;10.50;99.90;;;;;;5100510;28;20172;-78
2021/05/28 01:59:22;;;;;;;16.05;7.13;;;10.50;99.90;;;;;;5100191;28;20185;-77
2021/05/28 02:01:47;;;;;;;9.32;5.80;;;10.60;99.90;;;;;;5102538;28;20164;-79
2021/05/28 02:04:13;;;;;;;7.93;5.88;;;10.60;99.90;;;;;;5099424;28;20166;-77
2021/05/28 02:06:39;;;;;;;11.05;6.70;;;10.60;99.90;;;;;;5097444;28;20175;-77
2021/05/28 02:09:04;;;;;;;10.63;6.30;;;10.60;99.90;;;;;;5097139;28;20213;-78
2021/05/28 02:11:30;;;;;;;11.93;7.78;;;10.50;99.90;;;;;;5080254;28;20194;-80
2021/05/28 02:13:56;;;;;;;9.90;6.68;;;10.50;99.90;;;;;;5097972;28;20213;-79
2021/05/28 02:16:22;;;;;;;16.25;7.20;;;10.70;99.90;;;;;;5096842;28;20169;-81
2021/05/28 02:18:47;;;;;;;10.18;6.95;;;10.50;99.90;;;;;;5097187;28;20242;-79
2021/05/28 02:21:13;;;;;;;15.70;7.20;;;10.40;99.90;;;;;;5097654;28;20305;-76
2021/05/28 02:23:39;;;;;;;10.70;6.53;;;10.30;99.90;;;;;;5096403;28;20162;-79
2021/05/28 02:26:04;;;;;;;7.97;7.18;;;10.30;99.90;;;;;;5079387;28;20273;-79
2021/05/28 02:28:30;;;;;;;15.10;6.50;;;10.20;99.90;;;;;;5098970;28;20205;-78
2021/05/28 02:30:55;;;;;;;10.40;7.20;;;10.10;99.90;;;;;;5096542;28;20249;-79
2021/05/28 02:33:21;;;;;;;8.90;7.10;;;10.10;99.90;;;;;;5096755;28;20177;-77
2021/05/28 02:35:46;;;;;;;8.80;6.95;;;10.20;99.90;;;;;;5096243;28;20191;-79
2021/05/28 02:38:12;;;;;;;11.88;8.00;;;10.40;99.90;;;;;;5096557;28;20192;-79
2021/05/28 02:40:38;;;;;;;8.13;7.25;;;10.30;99.90;;;;;;5096689;28;20177;-80
2021/05/28 02:43:03;;;;;;;11.48;8.02;;;10.30;99.90;;;;;;5096379;28;20227;-78
2021/05/28 02:45:29;;;;;;;14.07;6.70;;;10.30;99.90;;;;;;5096272;28;20174;-79
2021/05/28 02:47:57;;;;;;;12.80;7.72;;;10.20;99.90;;;;;;5094884;28;20276;-78
2021/05/28 02:50:23;;;;;;;12.70;7.30;;;10.20;99.90;;;;;;5095770;28;20194;-77
2021/05/28 02:52:48;;;;;;;9.52;7.18;;;10.20;99.90;;;;;;5095784;28;20214;-79
2021/05/28 02:55:14;;;;;;;12.73;7.63;;;10.20;99.90;;;;;;5095755;28;20170;-79
2021/05/28 02:57:40;;;;;;;14.82;8.00;;;10.20;99.90;;;;;;5097386;28;20220;-79
2021/05/28 03:00:06;;;;;;;13.13;8.02;;;10.20;99.90;;;;;;5096621;28;20181;-79
2021/05/28 03:02:32;;;;;;;10.23;7.22;;;10.20;99.90;;;;;;5097695;28;20166;-79
2021/05/28 03:04:58;;;;;;;9.85;7.80;;;10.20;99.90;;;;;;5095923;28;20192;-78
2021/05/28 03:07:23;;;;;;;14.07;8.55;;;10.20;99.90;;;;;;5096405;28;20300;-78
2021/05/28 03:09:49;;;;;;;13.93;8.15;;;10.10;99.90;;;;;;5096854;28;20190;-77
2021/05/28 03:12:14;;;;;;;11.30;8.55;;;10.10;99.90;;;;;;5096725;28;20170;-78
2021/05/28 03:14:40;;;;;;;17.58;8.52;;;10.10;99.90;;;;;;5079476;28;20308;-78
2021/05/28 03:17:06;;;;;;;9.82;8.25;;;10.10;99.90;;;;;;5098986;28;20204;-78
2021/05/28 03:19:42;;;;;;;21.73;10.23;;;10.10;99.90;;;;;;5097694;28;20196;-81
2021/05/28 03:25:08;;;;;;;12.95;8.93;;;10.10;99.90;;;;;;5115852;28;20179;-77
2021/05/28 03:27:35;;;;;;;17.60;9.52;;;10.40;99.90;;;;;;5114571;28;20225;-78
2021/05/28 03:30:03;;;;;;;12.68;9.68;;;10.50;99.90;;;;;;5095474;28;20178;-77
2021/05/28 03:32:28;;;;;;;12.77;9.18;;;10.30;99.90;;;;;;5076974;28;20570;-77
2021/05/28 03:34:54;;;;;;;15.27;9.43;;;10.30;99.90;;;;;;5094669;28;20223;-78
2021/05/28 03:37:21;;;;;;;13.27;9.68;;;10.30;99.90;;;;;;5076315;28;20173;-78
2021/05/28 03:39:48;;;;;;;13.23;9.15;;;10.30;99.90;;;;;;5094026;28;20185;-78
2021/05/28 03:42:14;;;;;;;12.52;9.45;;;10.30;99.90;;;;;;5093955;28;20166;-80
2021/05/28 03:44:39;;;;;;;12.75;9.13;;;10.40;99.90;;;;;;5094085;28;20162;-79
2021/05/28 03:47:05;;;;;;;12.18;8.95;;;10.50;99.90;;;;;;5094359;28;20583;-79
2021/05/28 03:49:31;;;;;;;13.63;8.90;;;10.50;99.90;;;;;;5094083;28;20228;-78
2021/05/28 03:51:57;;;;;;;11.43;9.10;;;10.40;99.90;;;;;;5094189;28;20253;-78
2021/05/28 03:54:22;;;;;;;16.08;9.50;;;10.50;99.90;;;;;;5094288;28;20618;-78
2021/05/28 03:56:49;;;;;;;14.95;8.63;;;10.50;99.90;;;;;;5094128;28;20169;-78
2021/05/28 03:59:14;;;;;;;23.15;9.43;;;10.30;99.90;;;;;;5093296;28;20716;-78
2021/05/28 04:01:40;;;;;;;13.98;9.13;;;10.30;99.90;;;;;;5094706;28;20154;-78
2021/05/28 04:04:06;;;;;;;19.80;10.98;;;10.00;99.90;;;;;;5093923;28;20223;-81
2021/05/28 04:06:31;;;;;;;17.40;10.40;;;10.20;99.90;;;;;;5094088;28;20172;-78
2021/05/28 04:08:57;;;;;;;21.98;10.23;;;10.50;99.90;;;;;;5093372;28;20212;-78
2021/05/28 04:11:24;;;;;;;13.18;9.25;;;10.60;99.90;;;;;;5093789;28;20220;-80
2021/05/28 04:13:51;;;;;;;20.83;9.93;;;10.70;99.90;;;;;;5093940;28;20667;-79
2021/05/28 04:16:17;;;;;;;15.30;10.60;;;10.90;99.90;;;;;;5080351;28;20583;-81
2021/05/28 04:18:44;;;;;;;14.13;10.05;;;11.20;99.90;;;;;;5095832;28;20190;-81
2021/05/28 04:21:10;;;;;;;14.77;10.80;;;11.40;99.90;;;;;;5095751;28;20173;-79
2021/05/28 04:23:35;;;;;;;23.80;12.18;;;11.60;99.90;;;;;;5095847;28;20514;-80
2021/05/28 04:26:01;;;;;;;17.05;11.25;;;11.40;99.90;;;;;;5094816;28;20201;-78
2021/05/28 04:28:28;;;;;;;15.88;12.05;;;11.50;99.90;;;;;;5094014;28;20216;-78
2021/05/28 04:30:54;;;;;;;19.65;12.13;;;11.70;99.90;;;;;;5093712;28;20197;-78
2021/05/28 04:33:20;;;;;;;27.42;12.65;;;11.70;99.90;;;;;;5094170;28;20606;-78
2021/05/28 04:35:46;;;;;;;22.45;11.50;;;11.80;99.90;;;;;;5093927;28;20169;-81
2021/05/28 04:38:11;;;;;;;17.98;11.27;;;11.80;99.90;;;;;;5093804;28;20188;-78
2021/05/28 04:40:37;;;;;;;17.67;11.18;;;11.70;99.90;;;;;;5093322;28;20242;-79
2021/05/28 04:43:03;;;;;;;16.75;11.77;;;11.90;99.90;;;;;;5093765;28;20281;-80
2021/05/28 04:45:28;;;;;;;19.58;12.13;;;12.00;99.90;;;;;;5093416;28;20215;-80
2021/05/28 04:47:54;;;;;;;12.98;10.82;;;11.70;99.90;;;;;;5093801;28;20233;-79
2021/05/28 04:50:21;;;;;;;26.00;12.63;;;11.80;99.90;;;;;;5093148;28;20657;-79
2021/05/28 04:52:47;;;;;;;18.77;11.65;;;12.00;99.90;;;;;;5093052;28;20165;-79
2021/05/28 04:55:14;;;;;;;23.27;11.70;;;11.90;99.90;;;;;;5092986;28;20166;-79
2021/05/28 04:57:40;;;;;;;17.08;11.60;;;11.80;99.90;;;;;;5074975;28;20645;-78
2021/05/28 05:00:07;;;;;;;18.33;11.30;;;12.00;99.90;;;;;;5093845;28;20257;-78
2021/05/28 05:02:32;;;;;;;14.27;10.95;;;12.10;99.90;;;;;;5077401;28;20196;-78
2021/05/28 05:04:58;;;;;;;24.48;11.30;;;12.10;99.90;;;;;;5094937;28;20623;-79
2021/05/28 05:07:24;;;;;;;18.60;12.18;;;12.30;99.90;;;;;;5094376;28;20255;-79
2021/05/28 05:09:49;;;;;;;15.95;12.13;;;12.50;99.90;;;;;;5093777;28;20193;-77
2021/05/28 05:12:15;;;;;;;17.85;11.85;;;12.20;99.90;;;;;;5093755;28;20158;-78
2021/05/28 05:14:40;;;;;;;27.50;12.60;;;11.90;99.90;;;;;;5093147;28;20562;-79
2021/05/28 05:17:06;;;;;;;19.30;11.90;;;11.90;99.90;;;;;;5092712;28;20648;-80
2021/05/28 05:19:35;;;;;;;27.67;12.80;;;11.80;99.90;;;;;;5093238;28;20186;-79
2021/05/28 05:22:00;;;;;;;15.50;12.40;;;11.80;99.90;;;;;;5092637;28;20208;-78
2021/05/28 05:24:26;;;;;;;16.27;11.57;;;11.50;99.90;;;;;;5094059;28;20157;-78
2021/05/28 05:26:51;;;;;;;27.05;12.25;;;11.40;99.90;;;;;;5092907;28;20234;-78
2021/05/28 05:29:17;;;;;;;19.05;12.77;;;11.50;99.90;;;;;;5094917;28;20621;-76
2021/05/28 05:31:43;;;;;;;19.05;14.00;;;11.70;99.90;;;;;;5078380;28;20166;-78
2021/05/28 05:34:09;;;;;;;25.60;13.02;;;12.00;99.90;;;;;;5076470;28;20162;-78
2021/05/28 05:36:36;;;;;;;26.60;13.52;;;11.90;99.90;;;;;;5074941;28;20169;-79
2021/05/28 05:39:03;;;;;;;26.05;13.07;;;12.10;99.90;;;;;;5073964;28;20587;-79
2021/05/28 05:41:29;;;;;;;21.55;14.02;;;12.40;99.90;;;;;;5092830;28;20172;-79
2021/05/28 05:43:55;;;;;;;23.38;12.68;;;12.70;99.90;;;;;;5093238;28;20182;-79
2021/05/28 05:46:21;;;;;;;16.40;12.93;;;13.00;99.90;;;;;;5092232;28;20546;-80
2021/05/28 05:48:46;;;;;;;27.20;13.27;;;12.90;99.90;;;;;;5092018;28;20202;-79
2021/05/28 05:51:12;;;;;;;26.05;13.90;;;13.00;99.90;;;;;;5092671;28;20166;-80
2021/05/28 05:53:38;;;;;;;19.70;12.75;;;13.00;99.90;;;;;;5092086;28;20173;-77
2021/05/28 05:56:04;;;;;;;24.17;12.32;;;12.90;99.90;;;;;;5092406;28;20170;-78
2021/05/28 05:58:29;;;;;;;19.75;13.18;;;12.80;99.90;;;;;;5092230;28;20776;-78
2021/05/28 06:00:56;;;;;;;29.65;12.68;;;12.90;99.90;;;;;;5091904;28;20188;-78
2021/05/28 06:03:21;;;;;;;13.15;11.00;;;13.00;99.90;;;;;;5092181;28;20169;-78
2021/05/28 06:05:47;;;;;;;28.10;12.50;;;13.30;99.90;;;;;;5092419;28;20176;-78
2021/05/28 06:08:12;;;;;;;15.15;10.70;;;13.20;99.90;;;;;;5073858;28;20210;-78
2021/05/28 06:10:38;;;;;;;15.27;11.38;;;12.90;99.90;;;;;;5092140;28;20637;-77
2021/05/28 06:13:06;;;;;;;18.42;10.32;;;13.00;99.90;;;;;;5093696;28;20180;-80
2021/05/28 06:15:32;;;;;;;15.68;10.25;;;12.80;99.90;;;;;;5105142;28;20158;-77
2021/05/28 06:17:58;;;;;;;17.40;10.70;;;12.90;99.90;;;;;;5109676;28;20219;-78
2021/05/28 06:20:24;;;;;;;19.80;11.32;;;13.00;99.90;;;;;;5110233;28;20186;-77
2021/05/28 06:22:49;;;;;;;19.25;10.38;;;13.00;99.90;;;;;;5103181;28;20165;-78
2021/05/28 06:25:16;;;;;;;26.05;10.52;;;13.20;99.90;;;;;;5096209;28;20250;-79
2021/05/28 06:27:42;;;;;;;17.40;11.93;;;13.40;99.90;;;;;;5095871;28;20256;-79
2021/05/28 06:30:09;;;;;;;12.00;10.70;;;13.40;99.90;;;;;;5095645;28;20279;-78
2021/05/28 06:32:35;;;;;;;21.85;11.40;;;13.40;99.90;;;;;;5095399;28;20201;-79
2021/05/28 06:35:00;;;;;;;22.17;11.93;;;13.70;99.90;;;;;;5095436;28;20166;-78
2021/05/28 06:37:26;;;;;;;14.90;11.18;;;13.80;99.90;;;;;;5095392;28;20177;-78
2021/05/28 06:39:52;;;;;;;15.10;12.02;;;13.90;99.90;;;;;;5095908;28;20190;-79
2021/05/28 06:42:17;;;;;;;26.00;11.70;;;14.20;99.90;;;;;;5096310;28;20176;-79
2021/05/28 06:44:43;;;;;;;14.20;9.73;;;14.20;99.90;;;;;;5095531;28;20169;-79
2021/05/28 06:47:09;;;;;;;26.70;9.55;;;14.30;99.90;;;;;;5095186;28;20197;-79
2021/05/28 06:49:34;;;;;;;15.68;7.80;;;14.30;99.90;;;;;;5095858;28;20280;-78
2021/05/28 06:52:00;;;;;;;10.48;7.55;;;14.50;99.90;;;;;;5102232;28;20157;-79
2021/05/28 06:54:25;;;;;;;12.95;6.97;;;14.50;99.90;;;;;;5096811;28;20173;-79
2021/05/28 06:56:51;;;;;;;14.73;7.18;;;14.40;99.90;;;;;;5095760;28;20158;-79
2021/05/28 06:59:17;;;;;;;13.77;7.57;;;14.30;99.90;;;;;;5095015;28;20235;-79
2021/05/28 07:01:42;;;;;;;9.15;5.82;;;14.60;99.90;;;;;;5096692;28;20621;-78
2021/05/28 07:04:08;;;;;;;8.48;5.53;;;15.10;99.90;;;;;;5096019;28;20256;-80
2021/05/28 07:06:34;;;;;;;5.80;5.25;;;15.40;99.90;;;;;;5096873;28;20162;-81
2021/05/28 07:09:00;;;;;;;8.27;5.45;;;15.50;99.90;;;;;;5076709;28;20213;-81
2021/05/28 07:11:25;;;;;;;8.25;5.47;;;16.20;99.90;;;;;;5095236;28;20216;-78
2021/05/28 07:13:51;;;;;;;9.93;5.85;;;16.70;99.90;;;;;;5095344;28;20621;-81
2021/05/28 07:16:17;;;;;;;6.47;5.03;;;16.70;99.90;;;;;;5094946;28;20161;-78
2021/05/28 07:18:43;;;;;;;7.22;5.47;;;17.60;99.90;;;;;;5093703;28;20595;-78
2021/05/28 07:21:09;;;;;;;7.95;4.28;;;17.40;99.90;;;;;;5095083;28;20161;-79
2021/05/28 07:23:35;;;;;;;10.27;5.47;;;16.80;99.90;;;;;;5095125;28;20182;-78
2021/05/28 07:26:01;;;;;;;8.38;6.07;;;17.40;99.90;;;;;;5095017;28;20161;-78
2021/05/28 07:28:31;;;;;;;9.82;4.90;;;18.50;99.90;;;;;;5094616;28;20205;-78
2021/05/28 07:30:57;;;;;;;6.03;3.80;;;19.30;99.90;;;;;;5094148;28;20166;-78
2021/05/28 07:33:23;;;;;;;14.60;4.50;;;20.60;99.90;;;;;;5076312;28;20174;-79
2021/05/28 07:35:49;;;;;;;4.35;3.47;;;21.30;99.90;;;;;;5094058;28;20299;-79
2021/05/28 07:38:15;;;;;;;7.18;4.10;;;19.90;99.90;;;;;;5093339;28;20541;-79
2021/05/28 07:40:42;;;;;;;10.02;3.67;;;19.80;99.90;;;;;;5093005;28;20176;-77
2021/05/28 07:43:07;;;;;;;7.75;5.30;;;20.20;99.90;;;;;;5075088;28;20260;-77
2021/05/28 07:45:33;;;;;;;5.25;4.72;;;20.70;99.90;;;;;;5092966;28;20236;-80
2021/05/28 07:47:59;;;;;;;3.83;3.22;;;19.80;99.90;;;;;;5075877;28;20296;-81
2021/05/28 07:50:25;;;;;;;5.50;3.13;;;19.20;99.90;;;;;;5093878;28;20261;-77
2021/05/28 07:52:51;;;;;;;12.45;3.42;;;19.40;99.90;;;;;;5093664;28;20721;-76
2021/05/28 07:55:16;;;;;;;7.82;3.70;;;19.10;99.90;;;;;;5076000;28;20162;-77
2021/05/28 07:57:42;;;;;;;9.10;4.20;;;18.60;99.90;;;;;;5093879;28;20170;-77
2021/05/28 08:00:09;;;;;;;8.45;4.60;;;17.80;99.90;;;;;;5093583;28;20227;-77
2021/05/28 08:02:35;;;;;;;16.30;3.22;;;17.60;99.90;;;;;;5093661;28;20219;-78
2021/05/28 08:05:00;;;;;;;6.88;3.42;;;17.30;99.90;;;;;;5075537;28;20162;-77
2021/05/28 08:07:26;;;;;;;7.82;4.65;;;17.00;99.90;;;;;;5093861;28;20734;-75
2021/05/28 08:09:52;;;;;;;6.97;3.75;;;16.80;99.90;;;;;;5093575;28;20599;-76
2021/05/28 08:12:17;;;;;;;9.95;3.72;;;16.70;99.90;;;;;;5094382;28;20173;-79
2021/05/28 08:14:44;;;;;;;4.78;3.53;;;16.90;99.90;;;;;;5093515;28;20170;-80
2021/05/28 08:17:09;;;;;;;4.03;3.28;;;17.20;99.90;;;;;;5076491;28;20303;-80
2021/05/28 08:19:35;;;;;;;9.80;4.18;;;17.10;99.90;;;;;;5093549;28;20269;-80
2021/05/28 08:22:01;;;;;;;16.67;5.45;;;16.80;99.90;;;;;;5093830;28;20577;-81
2021/05/28 08:24:27;;;;;;;11.35;3.85;;;16.60;99.90;;;;;;5093362;28;20196;-79
2021/05/28 08:26:52;;;;;;;14.68;3.85;;;16.80;99.90;;;;;;5094074;28;20180;-79
2021/05/28 08:29:18;;;;;;;8.35;3.65;;;17.00;99.90;;;;;;5093973;28;20225;-80
2021/05/28 08:31:44;;;;;;;11.10;3.05;;;16.90;99.90;;;;;;5094044;28;20165;-79
2021/05/28 08:34:09;;;;;;;5.22;3.33;;;17.20;99.90;;;;;;5093915;28;20204;-78
2021/05/28 08:36:35;;;;;;;14.85;5.85;;;17.00;99.90;;;;;;5075762;28;20178;-91
2021/05/28 08:39:01;;;;;;;12.15;2.95;;;17.00;99.90;;;;;;5094153;28;20191;-81
2021/05/28 08:41:27;;;;;;;8.65;3.33;;;17.10;99.90;;;;;;5093282;28;20161;-81
2021/05/28 08:43:53;;;;;;;6.47;3.17;;;17.50;99.90;;;;;;5092925;28;20232;-78
2021/05/28 08:46:21;;;;;;;5.00;2.78;;;17.60;99.90;;;;;;5092660;28;20207;-80
2021/05/28 08:48:50;;;;;;;5.45;2.80;;;17.70;99.90;;;;;;5092654;28;20205;-79
2021/05/28 08:51:16;;;;;;;5.30;2.75;;;17.70;99.90;;;;;;5093024;28;20169;-79
2021/05/28 08:53:42;;;;;;;11.40;3.13;;;17.60;99.90;;;;;;5093943;28;20223;-80
2021/05/28 08:56:09;;;;;;;5.57;3.53;;;17.50;99.90;;;;;;5094096;28;20162;-80
2021/05/28 08:58:35;;;;;;;5.90;4.10;;;17.60;99.90;;;;;;5092756;28;20188;-77
2021/05/28 09:01:01;;;;;;;4.32;3.13;;;17.80;99.90;;;;;;5093324;28;20185;-78
2021/05/28 09:03:29;;;;;;;12.25;3.75;;;17.70;99.90;;;;;;5074359;28;20166;-78
2021/05/28 09:06:15;;;;;;;4.50;2.67;;;18.00;99.90;;;;;;5093721;28;20162;-77
2021/05/28 09:08:41;;;;;;;14.63;3.92;;;18.00;99.90;;;;;;5102638;28;20225;-77
2021/05/28 09:11:14;;;;;;;5.25;3.50;;;18.10;99.90;;;;;;5112483;28;20166;-78
2021/05/28 09:13:57;;;;;;;9.07;3.00;;;18.00;99.90;;;;;;5093524;28;20165;-77
2021/05/28 09:16:27;;;;;;;4.78;3.38;;;18.20;99.90;;;;;;5096338;28;20222;-78
2021/05/28 09:18:54;;;;;;;3.75;2.28;;;18.20;99.90;;;;;;5104916;28;20220;-79
2021/05/28 09:21:28;;;;;;;4.00;2.25;;;18.20;99.90;;;;;;5094568;28;20253;-78
2021/05/28 09:23:54;;;;;;;3.53;2.60;;;18.00;99.90;;;;;;5092621;28;20206;-78
2021/05/28 09:26:23;;;;;;;4.10;1.92;;;17.90;99.90;;;;;;5092783;28;20181;-79
2021/05/28 09:28:50;;;;;;;2.40;1.83;;;17.70;99.90;;;;;;5092326;28;20675;-78
2021/05/28 09:31:17;;;;;;;3.10;2.55;;;17.80;99.90;;;;;;5092518;28;20170;-80
2021/05/28 09:33:46;;;;;;;11.73;5.28;;;18.00;99.90;;;;;;5092249;28;20275;-78
2021/05/28 09:36:26;;;;;;;7.50;2.75;;;18.10;99.90;;;;;;5092532;28;20573;-78
2021/05/28 09:39:12;;;;;;;3.80;3.25;;;18.10;99.90;;;;;;5092441;28;20568;-78
2021/05/28 09:41:45;;;;;;;7.70;3.67;;;18.30;99.90;;;;;;5092724;28;20211;-85
2021/05/28 09:44:27;;;;;;;10.63;3.45;;;18.20;99.90;;;;;;5071691;28;20185;-84
2021/05/28 09:47:13;;;;;;;3.83;2.53;;;18.20;99.90;;;;;;5090945;28;20262;-85
2021/05/28 09:49:42;;;;;;;16.90;3.00;;;18.00;99.90;;;;;;5092546;28;20200;-84
2021/05/28 09:52:12;;;;;;;3.38;1.75;;;17.70;99.90;;;;;;5093276;28;20165;-79
2021/05/28 09:54:56;;;;;;;6.20;2.40;;;17.80;99.90;;;;;;5091257;28;20280;-80
2021/05/28 09:57:34;;;;;;;5.43;2.03;;;18.00;99.90;;;;;;5095720;28;20244;-84
2021/05/28 10:00:02;;;;;;;8.13;2.88;;;18.10;99.90;;;;;;5095650;28;20189;-77
2021/05/28 10:02:33;;;;;;;3.10;2.40;;;18.30;99.90;;;;;;5097013;28;20165;-77
2021/05/28 10:05:00;;;;;;;4.55;2.15;;;17.90;99.90;;;;;;5098410;28;20177;-75
2021/05/28 10:07:27;;;;;;;2.70;2.00;;;18.10;99.90;;;;;;5093923;28;20602;-75
2021/05/28 10:09:54;;;;;;;3.10;1.52;;;18.10;99.90;;;;;;5094373;28;20196;-76
2021/05/28 10:12:22;;;;;;;4.25;1.70;;;17.80;99.90;;;;;;5093371;28;20527;-76
2021/05/28 10:14:49;;;;;;;5.93;1.73;;;18.10;99.90;;;;;;5093773;28;20181;-74
2021/05/28 10:17:16;;;;;;;2.38;2.17;;;18.40;99.90;;;;;;5094362;28;20234;-75
2021/05/28 10:19:42;;;;;;;8.10;2.33;;;18.30;99.90;;;;;;5093848;28;20174;-75
2021/05/28 10:22:07;;;;;;;4.93;2.55;;;18.50;99.90;;;;;;5093660;28;20538;-75
2021/05/28 10:24:34;;;;;;;7.45;2.90;;;18.90;99.90;;;;;;5094222;28;20173;-75
2021/05/28 10:27:00;;;;;;;3.97;1.90;;;18.70;99.90;;;;;;5094040;28;20689;-75
2021/05/28 10:29:27;;;;;;;2.75;1.92;;;19.00;99.90;;;;;;5094388;28;20288;-75
2021/05/28 10:32:10;;;;;;;2.38;1.50;;;18.90;99.90;;;;;;5092745;28;20662;-75
2021/05/28 10:35:02;;;;;;;3.17;1.50;;;19.10;99.90;;;;;;5075005;28;20181;-76
2021/05/28 10:37:28;;;;;;;2.28;1.58;;;19.40;99.90;;;;;;5093985;28;20633;-76
2021/05/28 10:39:54;;;;;;;3.58;1.67;;;19.30;99.90;;;;;;5076006;28;20190;-76
2021/05/28 10:42:19;;;;;;;4.88;1.40;;;18.70;99.90;;;;;;5094446;28;20521;-78
2021/05/28 10:44:45;;;;;;;2.42;1.58;;;18.60;99.90;;;;;;5093882;28;20185;-78
2021/05/28 10:47:14;;;;;;;11.80;1.70;;;18.70;99.90;;;;;;5093925;28;20158;-77
2021/05/28 10:49:44;;;;;;;8.48;2.35;;;18.80;99.90;;;;;;5093916;28;20197;-79
2021/05/28 10:52:14;;;;;;;6.07;2.80;;;18.70;99.90;;;;;;5094123;28;20158;-80
2021/05/28 10:54:43;;;;;;;4.22;2.92;;;18.90;99.90;;;;;;5094223;28;20166;-78
2021/05/28 10:57:26;;;;;;;6.93;3.25;;;19.30;99.90;;;;;;5095050;28;20573;-79
2021/05/28 10:59:54;;;;;;;3.80;3.35;;;19.40;99.90;;;;;;5076654;28;20194;-78
2021/05/28 11:02:46;;;;;;;7.57;4.30;;;19.00;99.90;;;;;;5094793;28;20574;-80
2021/05/28 11:05:13;;;;;;;5.78;3.20;;;19.40;99.90;;;;;;5094683;28;20226;-79
2021/05/28 11:07:46;;;;;;;6.45;3.28;;;19.90;99.90;;;;;;5093459;28;20209;-79
2021/05/28 11:10:20;;;;;;;4.20;3.00;;;20.10;99.90;;;;;;5094711;28;20573;-79
2021/05/28 11:12:46;;;;;;;6.03;2.42;;;20.50;99.90;;;;;;5094846;28;20640;-80
2021/05/28 11:15:16;;;;;;;4.05;2.30;;;20.50;99.90;;;;;;5094961;28;20166;-78
2021/05/28 11:17:58;;;;;;;7.30;2.33;;;20.60;99.90;;;;;;5094948;28;20170;-78
2021/05/28 11:20:34;;;;;;;8.57;2.45;;;20.70;99.90;;;;;;5094420;28;20193;-78
2021/05/28 11:23:08;;;;;;;2.35;1.20;;;20.90;99.90;;;;;;5094758;28;20239;-79
2021/05/28 11:25:48;;;;;;;3.85;1.60;;;20.40;99.90;;;;;;5091084;28;20185;-79
2021/05/28 11:28:14;;;;;;;7.75;1.60;;;20.40;99.90;;;;;;5093777;28;20197;-78
2021/05/28 11:30:51;;;;;;;2.42;1.40;;;20.50;99.90;;;;;;5093088;28;20614;-79
2021/05/28 11:33:35;;;;;;;3.25;1.58;;;20.20;99.90;;;;;;5093391;28;20195;-79
2021/05/28 11:36:19;;;;;;;1.63;1.20;;;20.30;99.90;;;;;;5093143;28;20178;-79
2021/05/28 11:38:57;;;;;;;1.80;1.35;;;20.50;99.90;;;;;;5093600;28;20230;-78
2021/05/28 11:41:42;;;;;;;4.05;1.25;;;20.50;99.90;;;;;;5092933;28;20667;-78
2021/05/28 11:44:12;;;;;;;2.22;1.30;;;20.50;99.90;;;;;;5093192;28;20158;-80
2021/05/28 11:46:45;;;;;;;1.50;1.40;;;20.40;99.90;;;;;;5074582;28;20173;-78
2021/05/28 11:49:12;;;;;;;4.65;1.55;;;20.60;99.90;;;;;;5094310;28;20941;-78
2021/05/28 11:51:38;;;;;;;2.88;1.63;;;20.60;99.90;;;;;;5093230;28;20158;-79
2021/05/28 11:54:27;;;;;;;2.15;1.50;;;20.80;99.90;;;;;;5092277;28;20178;-80
2021/05/28 11:57:05;;;;;;;3.80;2.50;;;21.10;99.90;;;;;;5093360;28;20555;-83
2021/05/28 11:59:50;;;;;;;2.35;1.70;;;20.80;99.90;;;;;;5097072;28;20189;-82
2021/05/28 12:02:37;;;;;;;2.15;1.80;;;21.00;99.90;;;;;;5083312;28;20169;-82
2021/05/28 12:05:24;;;;;;;3.35;2.47;;;21.40;99.90;;;;;;5118774;28;20150;-78
2021/05/28 12:07:52;;;;;;;7.00;2.60;;;21.20;99.90;;;;;;5097279;28;20221;-79
2021/05/28 12:10:19;;;;;;;5.25;2.50;;;20.60;99.90;;;;;;5108306;28;20193;-79
2021/05/28 12:12:55;;;;;;;9.40;4.68;;;20.60;99.90;;;;;;5093925;28;20193;-78
2021/05/28 12:15:30;;;;;;;3.72;3.13;;;21.00;99.90;;;;;;5093199;28;20695;-79
2021/05/28 12:17:56;;;;;;;3.45;2.95;;;20.80;99.90;;;;;;5092452;28;20684;-80
2021/05/28 12:20:32;;;;;;;7.60;3.63;;;20.60;99.90;;;;;;5092453;28;20285;-79
2021/05/28 12:22:58;;;;;;;4.38;3.28;;;20.60;99.90;;;;;;5073744;28;20972;-81
2021/05/28 12:25:25;;;;;;;4.07;3.33;;;20.70;99.90;;;;;;5090663;28;20179;-79
2021/05/28 12:27:50;;;;;;;8.95;3.92;;;20.10;99.90;;;;;;5091571;28;20212;-79
2021/05/28 12:30:23;;;;;;;7.55;4.00;;;19.80;99.90;;;;;;5093118;28;20185;-80
2021/05/28 12:32:49;;;;;;;4.28;3.60;;;19.80;99.90;;;;;;5093729;28;20183;-78
2021/05/28 12:35:15;;;;;;;11.98;4.07;;;19.30;99.90;;;;;;5093816;28;20629;-79
2021/05/28 12:38:05;;;;;;;4.63;4.10;;;19.50;99.90;;;;;;5076708;28;20315;-79
2021/05/28 12:40:31;;;;;;;6.18;4.03;;;19.40;99.90;;;;;;5094073;28;20571;-78
2021/05/28 12:42:58;;;;;;;6.28;4.10;;;19.50;99.90;;;;;;5093655;28;20651;-80
2021/05/28 12:45:40;;;;;;;3.85;3.40;;;19.70;99.90;;;;;;5075215;28;20181;-79
2021/05/28 12:48:08;;;;;;;4.28;3.88;;;19.90;99.90;;;;;;5093351;28;20250;-80